Back to Top

Language: 

My Weather Underground Personal Weather Station Historical Data with Graphs...

Delerius Weather Station Historical Data
Daily Summary for May 17, 2017 Units:  English    Metric   Both
« Previous Day
Next Day »
Daily Weekly Monthly Yearly Custom
  High: Low: Average:
Temperature: 59.2 °F 48.4 °F 53.6 °F
Dew Point: 57.2 °F 47.0 °F 51.9 °F
Humidity: 97 % 86 % 94 %
Wind Speed: 6.0 mph 0.0 mph 1.2 mph
Wind Gust: 11.0 mph - -
Wind:- - WSW
Pressure: 30.13 in 29.87 in -
Precipitation: 0.24 in    
Historical Graphs
 
 
Tabular Data for May 17, 2017
Time Temperature Dew Point Pressure Wind Wind Speed Wind Gust Humidity Rainfall Rate (Hourly) solar Conditions
00:03 59.2 °F 57.2 °F 30.12 in Calm     93 % 0.00 in 0 W/m2
00:08 59.0 °F 57.0 °F 30.13 in SW 1.0 mph 4.0 mph 93 % 0.00 in 0 W/m2
00:13 58.8 °F 56.8 °F 30.12 in West 2.0 mph 7.0 mph 93 % 0.00 in 0 W/m2
00:18 58.6 °F 56.6 °F 30.12 in WNW 4.0 mph 9.0 mph 93 % 0.00 in 0 W/m2
00:23 58.1 °F 55.8 °F 30.12 in WNW 5.0 mph 9.0 mph 92 % 0.00 in 0 W/m2
00:28 57.6 °F 55.3 °F 30.12 in WNW 5.0 mph 8.0 mph 92 % 0.00 in 0 W/m2
00:33 57.2 °F 55.2 °F 30.12 in WNW 5.0 mph 8.0 mph 93 % 0.00 in 0 W/m2
00:38 56.8 °F 54.5 °F 30.12 in WNW 5.0 mph 8.0 mph 92 % 0.00 in 0 W/m2
00:43 56.7 °F 54.7 °F 30.12 in WNW 4.0 mph 8.0 mph 93 % 0.01 in 0 W/m2
00:48 56.5 °F 54.5 °F 30.12 in WNW 4.0 mph 7.0 mph 93 % 0.01 in 0 W/m2
00:53 56.3 °F 54.3 °F 30.12 in WNW 4.0 mph 7.0 mph 93 % 0.01 in 0 W/m2
00:58 56.1 °F 54.4 °F 30.12 in West 2.0 mph 6.0 mph 94 % 0.02 in 0 W/m2
01:03 56.1 °F 54.4 °F 30.11 in West 1.0 mph 5.0 mph 94 % 0.02 in 0 W/m2
01:08 56.1 °F 54.4 °F 30.11 in West 1.0 mph 3.0 mph 94 % 0.02 in 0 W/m2
01:13 55.9 °F 54.2 °F 30.11 in Calm   3.0 mph 94 % 0.02 in 0 W/m2
01:18 55.9 °F 54.2 °F 30.11 in Calm   2.0 mph 94 % 0.02 in 0 W/m2
01:23 55.9 °F 54.2 °F 30.11 in West 1.0 mph 2.0 mph 94 % 0.02 in 0 W/m2
01:28 55.8 °F 54.1 °F 30.11 in Calm   4.0 mph 94 % 0.02 in 0 W/m2
01:33 55.8 °F 54.1 °F 30.11 in West 1.0 mph 4.0 mph 94 % 0.02 in 0 W/m2
01:38 55.8 °F 54.1 °F 30.11 in WNW 2.0 mph 6.0 mph 94 % 0.02 in 0 W/m2
01:43 55.8 °F 54.1 °F 30.11 in WNW 2.0 mph 6.0 mph 94 % 0.01 in 0 W/m2
01:48 55.6 °F 53.9 °F 30.11 in NW 1.0 mph 4.0 mph 94 % 0.01 in 0 W/m2
01:53 55.6 °F 53.9 °F 30.11 in Calm   2.0 mph 94 % 0.00 in 0 W/m2
01:58 55.6 °F 53.9 °F 30.11 in Calm   2.0 mph 94 % 0.00 in 0 W/m2
02:03 55.6 °F 54.2 °F 30.11 in Calm   1.0 mph 95 % 0.00 in 0 W/m2
02:08 55.6 °F 54.2 °F 30.11 in Calm     95 % 0.00 in 0 W/m2
02:13 55.6 °F 54.2 °F 30.11 in Calm     95 % 0.00 in 0 W/m2
02:18 55.8 °F 54.3 °F 30.10 in Calm     95 % 0.00 in 0 W/m2
02:23 55.6 °F 54.2 °F 30.10 in Calm     95 % 0.00 in 0 W/m2
02:28 55.6 °F 54.2 °F 30.10 in Calm     95 % 0.00 in 0 W/m2
02:33 55.6 °F 54.2 °F 30.10 in Calm     95 % 0.00 in 0 W/m2
02:38 55.6 °F 54.2 °F 30.10 in Calm     95 % 0.00 in 0 W/m2
02:43 55.6 °F 54.2 °F 30.09 in Calm     95 % 0.00 in 0 W/m2
02:48 55.6 °F 54.2 °F 30.09 in Calm     95 % 0.00 in 0 W/m2
02:53 55.6 °F 54.2 °F 30.09 in Calm     95 % 0.00 in 0 W/m2
02:58 55.6 °F 54.2 °F 30.09 in Calm     95 % 0.00 in 0 W/m2
03:03 55.6 °F 54.2 °F 30.09 in Calm     95 % 0.00 in 0 W/m2
03:08 55.8 °F 54.3 °F 30.09 in Calm     95 % 0.00 in 0 W/m2
03:13 55.6 °F 54.2 °F 30.09 in Calm     95 % 0.00 in 0 W/m2
03:18 55.6 °F 54.2 °F 30.09 in Calm     95 % 0.00 in 0 W/m2
03:23 55.6 °F 54.2 °F 30.09 in Calm     95 % 0.00 in 0 W/m2
03:28 55.4 °F 54.0 °F 30.08 in Calm   1.0 mph 95 % 0.00 in 0 W/m2
03:29 55.6 °F 54.2 °F 30.08 in Calm   1.0 mph 95 % 0.00 in 0 W/m2
03:34 55.4 °F 54.0 °F 30.08 in Calm   1.0 mph 95 % 0.00 in 0 W/m2
03:39 55.2 °F 53.8 °F 30.08 in Calm   2.0 mph 95 % 0.00 in 0 W/m2
03:44 55.2 °F 53.8 °F 30.08 in Calm   3.0 mph 95 % 0.00 in 0 W/m2
03:49 55.2 °F 53.8 °F 30.08 in NW 1.0 mph 5.0 mph 95 % 0.00 in 0 W/m2
03:54 55.2 °F 53.8 °F 30.08 in NW 1.0 mph 5.0 mph 95 % 0.00 in 0 W/m2
03:59 55.0 °F 53.6 °F 30.07 in Calm   3.0 mph 95 % 0.00 in 0 W/m2
04:00 55.0 °F 53.6 °F 30.07 in NW 1.0 mph 3.0 mph 95 % 0.00 in 0 W/m2
04:05 55.0 °F 53.6 °F 30.07 in NE 1.0 mph 7.0 mph 95 % 0.00 in 0 W/m2
04:10 55.0 °F 53.6 °F 30.08 in NE 1.0 mph 7.0 mph 95 % 0.00 in 0 W/m2
04:15 54.9 °F 53.5 °F 30.07 in Calm   4.0 mph 95 % 0.00 in 0 W/m2
04:20 54.9 °F 53.5 °F 30.07 in NE 1.0 mph 4.0 mph 95 % 0.00 in 0 W/m2
04:25 54.9 °F 53.7 °F 30.07 in Calm   3.0 mph 96 % 0.00 in 0 W/m2
04:30 54.9 °F 53.7 °F 30.08 in Calm   1.0 mph 96 % 0.00 in 0 W/m2
04:35 54.9 °F 53.7 °F 30.08 in Calm   2.0 mph 96 % 0.00 in 0 W/m2
04:40 54.9 °F 53.7 °F 30.07 in NE 1.0 mph 3.0 mph 96 % 0.00 in 0 W/m2
04:45 54.9 °F 53.7 °F 30.07 in NE 1.0 mph 3.0 mph 96 % 0.00 in 0 W/m2
04:50 54.7 °F 53.6 °F 30.07 in NE 1.0 mph 4.0 mph 96 % 0.00 in 0 W/m2
04:55 54.7 °F 53.3 °F 30.07 in NE 1.0 mph 7.0 mph 95 % 0.01 in 0 W/m2
05:01 54.7 °F 53.3 °F 30.07 in NE 1.0 mph 7.0 mph 95 % 0.01 in 0 W/m2
05:06 54.5 °F 53.1 °F 30.07 in Calm   4.0 mph 95 % 0.01 in 0 W/m2
05:11 54.3 °F 52.9 °F 30.07 in Calm   4.0 mph 95 % 0.01 in 0 W/m2
05:16 54.3 °F 53.2 °F 30.07 in Calm   3.0 mph 96 % 0.01 in 0 W/m2
05:21 54.5 °F 53.4 °F 30.07 in NE 1.0 mph 4.0 mph 96 % 0.01 in 0 W/m2
05:26 54.3 °F 53.2 °F 30.07 in NNE 2.0 mph 6.0 mph 96 % 0.01 in 0 W/m2
05:31 54.3 °F 53.2 °F 30.07 in North 2.0 mph 6.0 mph 96 % 0.01 in 0 W/m2
05:36 54.1 °F 53.0 °F 30.07 in North 2.0 mph 6.0 mph 96 % 0.01 in 5 W/m2
05:41 54.1 °F 53.0 °F 30.07 in North 1.0 mph 6.0 mph 96 % 0.01 in 7 W/m2
05:46 54.1 °F 53.0 °F 30.07 in NNW 2.0 mph 5.0 mph 96 % 0.02 in 11 W/m2
05:51 54.1 °F 53.0 °F 30.07 in NNW 2.0 mph 5.0 mph 96 % 0.02 in 11 W/m2
05:56 54.0 °F 52.8 °F 30.06 in NNW 1.0 mph 5.0 mph 96 % 0.01 in 14 W/m2
06:01 54.0 °F 52.8 °F 30.06 in North 1.0 mph 5.0 mph 96 % 0.01 in 11 W/m2
06:03 54.0 °F 52.8 °F 30.06 in North 1.0 mph 5.0 mph 96 % 0.01 in 11 W/m2
06:08 54.0 °F 52.8 °F 30.06 in North 1.0 mph 4.0 mph 96 % 0.01 in 11 W/m2
06:13 54.1 °F 53.0 °F 30.06 in Calm   3.0 mph 96 % 0.01 in 7 W/m2
06:18 54.1 °F 53.0 °F 30.06 in North 1.0 mph 4.0 mph 96 % 0.01 in 9 W/m2
06:23 54.1 °F 53.0 °F 30.06 in North 1.0 mph 4.0 mph 96 % 0.01 in 16 W/m2
06:28 54.1 °F 53.0 °F 30.06 in Calm   2.0 mph 96 % 0.01 in 21 W/m2
06:33 54.1 °F 53.0 °F 30.06 in Calm   2.0 mph 96 % 0.01 in 12 W/m2
06:38 54.0 °F 52.8 °F 30.06 in Calm   1.0 mph 96 % 0.01 in 21 W/m2
06:43 54.0 °F 52.8 °F 30.06 in Calm   2.0 mph 96 % 0.00 in 37 W/m2
06:48 54.0 °F 52.8 °F 30.05 in Calm   2.0 mph 96 % 0.00 in 70 W/m2
06:53 54.0 °F 52.8 °F 30.06 in Calm   1.0 mph 96 % 0.00 in 111 W/m2
06:58 54.0 °F 52.8 °F 30.06 in Calm   1.0 mph 96 % 0.00 in 93 W/m2
07:03 54.1 °F 53.0 °F 30.06 in Calm   1.0 mph 96 % 0.00 in 69 W/m2
07:08 54.1 °F 53.0 °F 30.06 in Calm   1.0 mph 96 % 0.00 in 47 W/m2
07:13 54.1 °F 53.0 °F 30.06 in Calm     96 % 0.00 in 60 W/m2
07:23 54.3 °F 53.2 °F 30.06 in North 1.0 mph 5.0 mph 96 % 0.00 in 63 W/m2
07:28 54.5 °F 53.4 °F 30.06 in North 1.0 mph 5.0 mph 96 % 0.00 in 93 W/m2
07:33 54.7 °F 53.8 °F 30.06 in Calm   4.0 mph 97 % 0.00 in 86 W/m2
07:38 54.7 °F 53.6 °F 30.06 in Calm   1.0 mph 96 % 0.00 in 72 W/m2
07:43 54.7 °F 53.6 °F 30.06 in North 1.0 mph 5.0 mph 96 % 0.00 in 58 W/m2
07:48 54.7 °F 53.6 °F 30.05 in North 1.0 mph 5.0 mph 96 % 0.00 in 84 W/m2
07:53 54.7 °F 53.6 °F 30.05 in Calm   3.0 mph 96 % 0.00 in 88 W/m2
07:58 54.7 °F 53.6 °F 30.05 in North 1.0 mph 5.0 mph 96 % 0.00 in 76 W/m2
08:03 54.7 °F 53.6 °F 30.05 in North 1.0 mph 5.0 mph 96 % 0.00 in 76 W/m2
08:08 54.7 °F 53.6 °F 30.05 in North 1.0 mph 4.0 mph 96 % 0.00 in 107 W/m2
08:13 54.7 °F 53.6 °F 30.05 in Calm   4.0 mph 96 % 0.00 in 104 W/m2
08:18 54.9 °F 53.7 °F 30.05 in Calm   2.0 mph 96 % 0.00 in 109 W/m2
08:19 54.9 °F 53.7 °F 30.05 in Calm   2.0 mph 96 % 0.00 in 100 W/m2
08:24 55.0 °F 53.9 °F 30.05 in Calm   2.0 mph 96 % 0.00 in 104 W/m2
08:29 55.0 °F 53.9 °F 30.05 in Calm   2.0 mph 96 % 0.00 in 113 W/m2
08:34 55.0 °F 53.9 °F 30.05 in Calm   2.0 mph 96 % 0.00 in 97 W/m2
08:39 55.2 °F 54.1 °F 30.05 in Calm   2.0 mph 96 % 0.00 in 69 W/m2
08:44 55.2 °F 54.1 °F 30.05 in Calm   5.0 mph 96 % 0.00 in 37 W/m2
08:49 55.2 °F 54.1 °F 30.05 in NNE 1.0 mph 5.0 mph 96 % 0.00 in 44 W/m2
08:54 55.0 °F 53.9 °F 30.05 in NNE 2.0 mph 4.0 mph 96 % 0.00 in 65 W/m2
08:56 55.0 °F 53.9 °F 30.05 in NNE 1.0 mph 4.0 mph 96 % 0.00 in 84 W/m2
09:01 55.0 °F 53.9 °F 30.05 in Calm   4.0 mph 96 % 0.00 in 149 W/m2
09:07 55.2 °F 54.1 °F 30.05 in Calm   1.0 mph 96 % 0.00 in 151 W/m2
09:12 55.4 °F 54.3 °F 30.04 in Calm   1.0 mph 96 % 0.00 in 120 W/m2
09:17 55.6 °F 54.5 °F 30.04 in Calm   1.0 mph 96 % 0.00 in 88 W/m2
09:22 55.8 °F 54.6 °F 30.04 in Calm   1.0 mph 96 % 0.00 in 83 W/m2
09:27 55.8 °F 54.6 °F 30.04 in Calm     96 % 0.00 in 114 W/m2
09:32 55.8 °F 54.6 °F 30.04 in Calm     96 % 0.00 in 113 W/m2
09:37 55.9 °F 54.8 °F 30.04 in Calm     96 % 0.00 in 114 W/m2
09:42 55.9 °F 54.8 °F 30.04 in Calm   2.0 mph 96 % 0.00 in 113 W/m2
09:47 55.9 °F 54.5 °F 30.04 in NE 1.0 mph 4.0 mph 95 % 0.00 in 100 W/m2
09:52 55.8 °F 54.3 °F 30.04 in NE 1.0 mph 5.0 mph 95 % 0.00 in 167 W/m2
09:57 55.9 °F 54.8 °F 30.03 in East 1.0 mph 5.0 mph 96 % 0.00 in 185 W/m2
10:02 55.8 °F 54.3 °F 30.03 in East 1.0 mph 5.0 mph 95 % 0.00 in 158 W/m2
10:07 55.8 °F 54.3 °F 30.03 in East 1.0 mph 5.0 mph 95 % 0.00 in 167 W/m2
10:12 55.8 °F 54.3 °F 30.03 in East 1.0 mph 4.0 mph 95 % 0.00 in 149 W/m2
10:17 55.8 °F 54.3 °F 30.02 in Calm   2.0 mph 95 % 0.00 in 162 W/m2
10:22 55.8 °F 54.3 °F 30.02 in Calm   2.0 mph 95 % 0.00 in 227 W/m2
10:27 55.9 °F 54.5 °F 30.02 in Calm   3.0 mph 95 % 0.00 in 125 W/m2
10:32 55.9 °F 54.5 °F 30.02 in NE 1.0 mph 4.0 mph 95 % 0.00 in 149 W/m2
10:37 56.1 °F 54.7 °F 30.02 in Calm   4.0 mph 95 % 0.00 in 178 W/m2
10:42 56.1 °F 54.7 °F 30.02 in Calm   2.0 mph 95 % 0.00 in 167 W/m2
10:47 56.3 °F 54.9 °F 30.02 in WNW 1.0 mph 6.0 mph 95 % 0.00 in 163 W/m2
10:52 56.1 °F 54.4 °F 30.02 in WNW 4.0 mph 10.0 mph 94 % 0.00 in 165 W/m2
10:57 55.6 °F 53.0 °F 30.02 in WNW 6.0 mph 10.0 mph 91 % 0.00 in 153 W/m2
11:02 55.6 °F 52.7 °F 30.02 in WNW 6.0 mph 10.0 mph 90 % 0.00 in 144 W/m2
11:07 55.6 °F 52.4 °F 30.01 in West 5.0 mph 9.0 mph 89 % 0.00 in 137 W/m2
11:12 55.8 °F 52.6 °F 30.01 in West 3.0 mph 7.0 mph 89 % 0.00 in 132 W/m2
11:17 55.8 °F 52.6 °F 30.01 in WNW 3.0 mph 7.0 mph 89 % 0.01 in 130 W/m2
11:22 55.8 °F 52.3 °F 30.01 in WNW 3.0 mph 6.0 mph 88 % 0.01 in 118 W/m2
11:27 55.6 °F 51.8 °F 30.01 in West 3.0 mph 8.0 mph 87 % 0.01 in 109 W/m2
11:32 55.2 °F 51.1 °F 30.00 in WNW 4.0 mph 9.0 mph 86 % 0.01 in 120 W/m2
11:37 55.2 °F 51.4 °F 30.00 in WNW 4.0 mph 9.0 mph 87 % 0.02 in 125 W/m2
11:42 55.0 °F 51.2 °F 30.01 in WNW 4.0 mph 8.0 mph 87 % 0.02 in 130 W/m2
11:47 55.0 °F 51.2 °F 30.01 in WNW 5.0 mph 8.0 mph 87 % 0.02 in 134 W/m2
11:52 54.9 °F 51.4 °F 30.01 in WNW 5.0 mph 9.0 mph 88 % 0.02 in 135 W/m2
11:57 54.7 °F 51.2 °F 30.01 in WNW 6.0 mph 9.0 mph 88 % 0.02 in 137 W/m2
12:02 54.7 °F 51.5 °F 30.01 in WNW 6.0 mph 9.0 mph 89 % 0.03 in 137 W/m2
12:07 54.7 °F 51.8 °F 30.00 in WNW 6.0 mph 9.0 mph 90 % 0.03 in 127 W/m2
12:13 54.5 °F 51.6 °F 30.01 in WNW 6.0 mph 9.0 mph 90 % 0.03 in 132 W/m2
12:18 54.5 °F 51.9 °F 30.01 in WNW 5.0 mph 8.0 mph 91 % 0.03 in 123 W/m2
12:23 54.7 °F 52.1 °F 30.01 in WNW 5.0 mph 8.0 mph 91 % 0.04 in 127 W/m2
12:28 54.5 °F 51.9 °F 30.00 in WNW 5.0 mph 8.0 mph 91 % 0.04 in 135 W/m2
12:33 54.5 °F 51.9 °F 30.00 in WNW 4.0 mph 8.0 mph 91 % 0.05 in 130 W/m2
12:38 54.5 °F 52.2 °F 30.00 in WNW 2.0 mph 6.0 mph 92 % 0.04 in 118 W/m2
12:43 54.5 °F 51.9 °F 30.00 in WNW 2.0 mph 6.0 mph 91 % 0.05 in 121 W/m2
12:48 54.3 °F 52.0 °F 30.00 in WNW 2.0 mph 6.0 mph 92 % 0.05 in 114 W/m2
12:53 54.3 °F 52.0 °F 30.00 in WNW 3.0 mph 8.0 mph 92 % 0.05 in 114 W/m2
12:58 54.1 °F 51.6 °F 30.00 in WNW 4.0 mph 8.0 mph 91 % 0.05 in 118 W/m2
13:03 53.8 °F 51.2 °F 30.00 in WNW 4.0 mph 8.0 mph 91 % 0.05 in 132 W/m2
13:08 53.6 °F 51.0 °F 29.99 in WNW 4.0 mph 8.0 mph 91 % 0.05 in 135 W/m2
13:13 53.6 °F 51.0 °F 29.99 in WNW 4.0 mph 7.0 mph 91 % 0.05 in 149 W/m2
13:18 53.6 °F 51.0 °F 29.99 in WNW 4.0 mph 8.0 mph 91 % 0.05 in 127 W/m2
13:23 53.4 °F 50.9 °F 29.99 in WNW 4.0 mph 8.0 mph 91 % 0.04 in 128 W/m2
13:28 53.4 °F 51.2 °F 29.99 in WNW 3.0 mph 7.0 mph 92 % 0.04 in 139 W/m2
13:33 53.4 °F 51.2 °F 29.99 in NW 2.0 mph 5.0 mph 92 % 0.04 in 132 W/m2
13:38 53.6 °F 51.3 °F 29.99 in NW 2.0 mph 5.0 mph 92 % 0.04 in 121 W/m2
13:43 53.6 °F 51.3 °F 29.99 in NW 2.0 mph 6.0 mph 92 % 0.03 in 120 W/m2
13:48 53.8 °F 51.5 °F 29.99 in NW 2.0 mph 6.0 mph 92 % 0.04 in 125 W/m2
13:53 53.8 °F 51.5 °F 29.99 in NW 2.0 mph 6.0 mph 92 % 0.03 in 125 W/m2
13:54 53.8 °F 51.5 °F 29.99 in NW 2.0 mph 6.0 mph 92 % 0.03 in 127 W/m2
13:59 53.6 °F 51.3 °F 29.99 in NW 3.0 mph 6.0 mph 92 % 0.03 in 114 W/m2
14:05 53.4 °F 51.2 °F 29.99 in NW 2.0 mph 6.0 mph 92 % 0.03 in 114 W/m2
14:07 53.4 °F 51.2 °F 29.99 in NW 2.0 mph 6.0 mph 92 % 0.03 in 113 W/m2
14:12 53.2 °F 50.7 °F 29.99 in NNW 1.0 mph 6.0 mph 91 % 0.02 in 113 W/m2
14:17 53.2 °F 50.7 °F 29.98 in NNW 1.0 mph 6.0 mph 91 % 0.02 in 120 W/m2
14:22 53.2 °F 50.7 °F 29.98 in NW 2.0 mph 6.0 mph 91 % 0.03 in 130 W/m2
14:27 53.2 °F 50.7 °F 29.98 in NW 2.0 mph 6.0 mph 91 % 0.03 in 134 W/m2
14:33 53.2 °F 50.7 °F 29.98 in NW 1.0 mph 6.0 mph 91 % 0.02 in 116 W/m2
14:38 53.2 °F 50.7 °F 29.98 in NW 2.0 mph 6.0 mph 91 % 0.03 in 121 W/m2
14:43 53.2 °F 50.7 °F 29.98 in NW 2.0 mph 6.0 mph 91 % 0.03 in 90 W/m2
14:44 53.2 °F 50.7 °F 29.98 in NW 2.0 mph 6.0 mph 91 % 0.02 in 84 W/m2
14:49 53.1 °F 50.5 °F 29.97 in NW 2.0 mph 6.0 mph 91 % 0.02 in 81 W/m2
14:54 52.9 °F 50.0 °F 29.98 in NW 3.0 mph 6.0 mph 90 % 0.02 in 74 W/m2
14:59 52.9 °F 50.3 °F 29.98 in NW 2.0 mph 6.0 mph 91 % 0.03 in 67 W/m2
15:04 52.9 °F 50.3 °F 29.97 in NW 2.0 mph 5.0 mph 91 % 0.02 in 69 W/m2
15:09 52.7 °F 49.8 °F 29.97 in WNW 3.0 mph 6.0 mph 90 % 0.02 in 67 W/m2
15:14 52.7 °F 50.1 °F 29.97 in WNW 3.0 mph 6.0 mph 91 % 0.02 in 72 W/m2
15:19 52.7 °F 50.1 °F 29.97 in WNW 1.0 mph 5.0 mph 91 % 0.02 in 72 W/m2
15:24 52.5 °F 50.0 °F 29.97 in WNW 1.0 mph 4.0 mph 91 % 0.02 in 63 W/m2
15:29 52.7 °F 50.4 °F 29.97 in WNW 1.0 mph 4.0 mph 92 % 0.02 in 65 W/m2
15:34 52.7 °F 50.4 °F 29.97 in WNW 1.0 mph 4.0 mph 92 % 0.02 in 63 W/m2
15:39 52.7 °F 50.4 °F 29.96 in Calm   3.0 mph 92 % 0.02 in 72 W/m2
15:44 52.7 °F 50.4 °F 29.96 in Calm   2.0 mph 92 % 0.02 in 72 W/m2
15:49 52.5 °F 50.3 °F 29.96 in Calm   2.0 mph 92 % 0.02 in 83 W/m2
15:54 52.5 °F 50.6 °F 29.96 in Calm   2.0 mph 93 % 0.03 in 84 W/m2
15:59 52.5 °F 50.6 °F 29.95 in Calm   2.0 mph 93 % 0.02 in 86 W/m2
16:04 52.7 °F 50.7 °F 29.95 in Calm   2.0 mph 93 % 0.02 in 84 W/m2
16:09 52.7 °F 50.7 °F 29.95 in Calm   2.0 mph 93 % 0.03 in 84 W/m2
16:14 52.7 °F 50.7 °F 29.95 in Calm   2.0 mph 93 % 0.03 in 77 W/m2
16:19 52.9 °F 51.2 °F 29.94 in Calm     94 % 0.03 in 72 W/m2
16:24 52.9 °F 51.2 °F 29.94 in Calm     94 % 0.02 in 72 W/m2
16:29 53.1 °F 51.4 °F 29.94 in WNW 1.0 mph 6.0 mph 94 % 0.02 in 81 W/m2
16:34 53.1 °F 51.4 °F 29.93 in WNW 1.0 mph 6.0 mph 94 % 0.03 in 83 W/m2
16:39 52.9 °F 51.2 °F 29.93 in WNW 2.0 mph 5.0 mph 94 % 0.02 in 88 W/m2
16:44 52.9 °F 51.2 °F 29.93 in WNW 2.0 mph 5.0 mph 94 % 0.02 in 95 W/m2
16:49 52.9 °F 51.2 °F 29.93 in WNW 2.0 mph 6.0 mph 94 % 0.03 in 93 W/m2
16:54 52.9 °F 51.2 °F 29.93 in WNW 2.0 mph 6.0 mph 94 % 0.02 in 97 W/m2
16:59 53.1 °F 51.4 °F 29.93 in WNW 2.0 mph 7.0 mph 94 % 0.02 in 98 W/m2
17:04 52.9 °F 50.9 °F 29.93 in WNW 2.0 mph 7.0 mph 93 % 0.02 in 86 W/m2
17:09 52.9 °F 50.9 °F 29.93 in WNW 3.0 mph 5.0 mph 93 % 0.02 in 83 W/m2
17:14 52.7 °F 50.7 °F 29.93 in WNW 3.0 mph 6.0 mph 93 % 0.02 in 88 W/m2
17:19 52.5 °F 50.6 °F 29.92 in WNW 3.0 mph 6.0 mph 93 % 0.02 in 95 W/m2
17:24 52.7 °F 50.7 °F 29.92 in WNW 1.0 mph 5.0 mph 93 % 0.02 in 91 W/m2
17:29 52.7 °F 50.7 °F 29.92 in WNW 1.0 mph 4.0 mph 93 % 0.02 in 84 W/m2
17:34 52.7 °F 50.7 °F 29.92 in WNW 1.0 mph 4.0 mph 93 % 0.02 in 81 W/m2
17:39 52.9 °F 50.9 °F 29.92 in WNW 3.0 mph 7.0 mph 93 % 0.02 in 81 W/m2
17:42 52.9 °F 50.9 °F 29.92 in WNW 3.0 mph 7.0 mph 93 % 0.02 in 79 W/m2
17:47 52.9 °F 51.2 °F 29.92 in NW 2.0 mph 7.0 mph 94 % 0.02 in 76 W/m2
17:52 52.9 °F 51.2 °F 29.91 in NW 1.0 mph 5.0 mph 94 % 0.02 in 62 W/m2
17:57 52.9 °F 51.2 °F 29.91 in NW 1.0 mph 5.0 mph 94 % 0.02 in 53 W/m2
18:02 52.9 °F 51.2 °F 29.91 in NW 1.0 mph 5.0 mph 94 % 0.02 in 46 W/m2
18:07 52.9 °F 51.2 °F 29.92 in WNW 3.0 mph 11.0 mph 94 % 0.02 in 63 W/m2
18:12 52.5 °F 50.6 °F 29.92 in WNW 5.0 mph 11.0 mph 93 % 0.01 in 63 W/m2
18:17 52.0 °F 49.4 °F 29.92 in NW 6.0 mph 10.0 mph 91 % 0.01 in 58 W/m2
18:22 51.6 °F 49.1 °F 29.92 in NW 5.0 mph 9.0 mph 91 % 0.01 in 42 W/m2
18:27 51.4 °F 48.9 °F 29.92 in NW 3.0 mph 6.0 mph 91 % 0.01 in 39 W/m2
18:32 51.3 °F 48.7 °F 29.92 in NW 3.0 mph 5.0 mph 91 % 0.01 in 35 W/m2
18:37 51.3 °F 48.7 °F 29.92 in NW 1.0 mph 5.0 mph 91 % 0.01 in 39 W/m2
18:39 51.3 °F 48.7 °F 29.92 in NW 1.0 mph 5.0 mph 91 % 0.00 in 39 W/m2
18:44 51.3 °F 48.7 °F 29.92 in Calm   2.0 mph 91 % 0.00 in 42 W/m2
18:49 51.3 °F 48.7 °F 29.91 in Calm     91 % 0.01 in 39 W/m2
18:54 51.3 °F 48.7 °F 29.91 in Calm     91 % 0.01 in 32 W/m2
18:59 51.3 °F 48.7 °F 29.91 in Calm     91 % 0.01 in 28 W/m2
19:04 51.3 °F 48.7 °F 29.91 in Calm     91 % 0.01 in 26 W/m2
19:09 51.3 °F 48.7 °F 29.90 in Calm     91 % 0.01 in 30 W/m2
19:14 51.3 °F 49.0 °F 29.91 in Calm     92 % 0.01 in 28 W/m2
19:19 51.3 °F 49.0 °F 29.90 in Calm     92 % 0.01 in 28 W/m2
19:24 51.3 °F 49.0 °F 29.90 in Calm     92 % 0.01 in 26 W/m2
19:29 51.1 °F 48.8 °F 29.90 in Calm     92 % 0.01 in 25 W/m2
19:34 51.3 °F 49.0 °F 29.90 in Calm     92 % 0.01 in 25 W/m2
19:39 51.3 °F 49.0 °F 29.90 in Calm     92 % 0.01 in 19 W/m2
19:44 51.1 °F 48.8 °F 29.90 in Calm     92 % 0.01 in 16 W/m2
19:49 51.1 °F 48.8 °F 29.90 in Calm     92 % 0.00 in 16 W/m2
19:54 51.1 °F 48.8 °F 29.90 in Calm     92 % 0.00 in 16 W/m2
19:59 51.3 °F 49.3 °F 29.90 in Calm     93 % 0.00 in 16 W/m2
20:04 51.3 °F 49.3 °F 29.90 in Calm   2.0 mph 93 % 0.00 in 14 W/m2
20:09 51.4 °F 49.5 °F 29.90 in Calm   2.0 mph 93 % 0.00 in 18 W/m2
20:14 51.4 °F 49.8 °F 29.90 in Calm   2.0 mph 94 % 0.00 in 14 W/m2
20:19 51.3 °F 49.6 °F 29.90 in Calm     94 % 0.00 in 12 W/m2
20:24 51.3 °F 49.6 °F 29.90 in Calm     94 % 0.00 in 11 W/m2
20:29 51.1 °F 49.4 °F 29.90 in Calm     94 % 0.00 in 9 W/m2
20:34 51.1 °F 49.4 °F 29.90 in Calm     94 % 0.00 in 9 W/m2
20:39 51.1 °F 49.4 °F 29.90 in Calm     94 % 0.00 in 12 W/m2
20:44 50.9 °F 49.2 °F 29.90 in Calm     94 % 0.00 in 11 W/m2
20:49 50.7 °F 49.1 °F 29.90 in Calm     94 % 0.00 in 11 W/m2
20:54 50.7 °F 49.1 °F 29.90 in Calm     94 % 0.00 in 9 W/m2
20:59 50.5 °F 48.9 °F 29.90 in Calm     94 % 0.00 in 9 W/m2
21:04 50.5 °F 48.9 °F 29.90 in Calm     94 % 0.00 in 7 W/m2
21:09 50.5 °F 48.9 °F 29.90 in Calm     94 % 0.00 in 5 W/m2
21:14 50.5 °F 48.9 °F 29.90 in Calm     94 % 0.00 in 0 W/m2
21:19 50.5 °F 48.9 °F 29.90 in Calm     94 % 0.00 in 0 W/m2
21:25 50.5 °F 48.9 °F 29.89 in Calm     94 % 0.00 in 0 W/m2
21:30 50.5 °F 48.9 °F 29.90 in Calm     94 % 0.00 in 0 W/m2
21:35 50.5 °F 48.9 °F 29.89 in Calm     94 % 0.00 in 0 W/m2
21:45 50.5 °F 48.9 °F 29.89 in Calm     94 % 0.00 in 0 W/m2
21:50 50.4 °F 48.7 °F 29.89 in Calm     94 % 0.00 in 0 W/m2
21:55 50.4 °F 49.0 °F 29.89 in Calm     95 % 0.00 in 0 W/m2
22:00 50.4 °F 49.0 °F 29.89 in Calm     95 % 0.00 in 0 W/m2
22:05 50.4 °F 49.0 °F 29.88 in Calm     95 % 0.00 in 0 W/m2
22:10 50.4 °F 49.0 °F 29.88 in Calm     95 % 0.00 in 0 W/m2
22:15 50.4 °F 49.0 °F 29.88 in Calm     95 % 0.00 in 0 W/m2
22:20 50.2 °F 48.8 °F 29.88 in Calm     95 % 0.00 in 0 W/m2
22:25 50.2 °F 48.8 °F 29.88 in Calm     95 % 0.00 in 0 W/m2
22:30 50.2 °F 48.8 °F 29.88 in Calm   2.0 mph 95 % 0.00 in 0 W/m2
22:35 50.4 °F 49.0 °F 29.88 in Calm   2.0 mph 95 % 0.00 in 0 W/m2
22:40 50.2 °F 48.8 °F 29.88 in Calm   3.0 mph 95 % 0.00 in 0 W/m2
22:45 50.2 °F 48.8 °F 29.88 in Calm   3.0 mph 95 % 0.00 in 0 W/m2
22:50 50.2 °F 48.8 °F 29.88 in Calm     95 % 0.00 in 0 W/m2
22:55 50.0 °F 48.6 °F 29.88 in Calm     95 % 0.00 in 0 W/m2
23:00 49.8 °F 48.4 °F 29.88 in Calm   1.0 mph 95 % 0.00 in 0 W/m2
23:05 49.6 °F 48.3 °F 29.88 in Calm   2.0 mph 95 % 0.00 in 0 W/m2
23:10 49.6 °F 48.3 °F 29.88 in Calm   3.0 mph 95 % 0.00 in 0 W/m2
23:11 49.6 °F 48.3 °F 29.88 in Calm   3.0 mph 95 % 0.00 in 0 W/m2
23:16 49.5 °F 48.1 °F 29.88 in NW 1.0 mph 4.0 mph 95 % 0.00 in 0 W/m2
23:21 49.5 °F 48.1 °F 29.87 in NW 1.0 mph 4.0 mph 95 % 0.00 in 0 W/m2
23:26 49.5 °F 48.1 °F 29.87 in Calm   4.0 mph 95 % 0.00 in 0 W/m2
23:31 49.3 °F 47.9 °F 29.87 in Calm   4.0 mph 95 % 0.00 in 0 W/m2
23:36 49.3 °F 47.9 °F 29.87 in Calm   4.0 mph 95 % 0.00 in 0 W/m2
23:41 48.9 °F 47.6 °F 29.87 in Calm   4.0 mph 95 % 0.00 in 0 W/m2
23:43 48.9 °F 47.6 °F 29.87 in NW 1.0 mph 4.0 mph 95 % 0.00 in 0 W/m2
23:46 48.9 °F 47.6 °F 29.87 in NW 1.0 mph 5.0 mph 95 % 0.00 in 0 W/m2
23:51 48.7 °F 47.4 °F 29.87 in WNW 3.0 mph 7.0 mph 95 % 0.00 in 0 W/m2
23:56 48.4 °F 47.0 °F 29.87 in WNW 4.0 mph 8.0 mph 95 % 0.00 in 0 W/m2
Delerius-Weather
Compliments of Weather Underground - 2.25 mb

Data updates at regular intervals.